createdAt,value
2022-08-12T00:02:02.852Z,7.13
2022-08-12T00:04:50.388Z,7.03
2022-08-12T00:07:37.037Z,7.30
2022-08-12T00:10:23.507Z,6.73
2022-08-12T00:13:10.886Z,7.33
2022-08-12T00:15:57.507Z,9.07
2022-08-12T00:18:43.497Z,8.90
2022-08-12T00:21:30.818Z,8.50
2022-08-12T00:24:16.791Z,8.20
2022-08-12T00:27:02.692Z,7.37
2022-08-12T00:29:49.954Z,7.90
2022-08-12T00:32:36.654Z,8.63
2022-08-12T00:35:29.193Z,7.07
2022-08-12T00:38:22.710Z,9.03
2022-08-12T00:41:08.825Z,8.63
2022-08-12T00:43:38.294Z,8.53
2022-08-12T00:46:25.794Z,9.33
2022-08-12T00:48:54.070Z,8.50
2022-08-12T00:51:23.062Z,8.33
2022-08-12T00:53:51.474Z,8.17
2022-08-12T00:56:20.587Z,7.77
2022-08-12T00:58:51.012Z,7.40
2022-08-12T01:01:20.484Z,8.30
2022-08-12T01:04:09.308Z,7.77
2022-08-12T01:06:56.418Z,7.60
2022-08-12T01:09:42.506Z,8.07
2022-08-12T01:12:11.187Z,7.93
2022-08-12T01:14:39.661Z,8.47
2022-08-12T01:17:07.972Z,7.53
2022-08-12T01:19:37.842Z,7.20
2022-08-12T01:22:16.367Z,7.60
2022-08-12T01:24:56.013Z,7.90
2022-08-12T01:27:24.808Z,7.90
2022-08-12T01:29:53.996Z,8.53
2022-08-12T01:32:23.670Z,7.37
2022-08-12T01:34:56.876Z,8.17
2022-08-12T01:37:26.882Z,8.37
2022-08-12T01:40:34.041Z,8.97
2022-08-12T01:42:47.298Z,8.10
2022-08-12T01:45:17.476Z,7.73
2022-08-12T01:48:06.648Z,8.13
2022-08-12T01:50:38.211Z,8.83
2022-08-12T01:53:10.453Z,8.10
2022-08-12T01:55:41.392Z,8.20
2022-08-12T01:58:17.175Z,8.30
2022-08-12T02:00:55.014Z,8.37
2022-08-12T02:03:46.609Z,9.00
2022-08-12T02:06:36.894Z,8.30
2022-08-12T02:09:23.754Z,8.60
2022-08-12T02:11:58.843Z,8.30
2022-08-12T02:14:35.725Z,8.20
2022-08-12T02:17:09.747Z,8.47
2022-08-12T02:19:54.890Z,8.33
2022-08-12T02:22:28.149Z,9.33
2022-08-12T02:24:58.957Z,8.50
2022-08-12T02:27:31.163Z,8.53
2022-08-12T02:29:59.522Z,8.93
2022-08-12T02:32:28.036Z,8.80
2022-08-12T02:34:57.461Z,8.03
2022-08-12T02:37:26.223Z,8.00
2022-08-12T02:39:55.513Z,8.60
2022-08-12T02:42:24.458Z,8.20
2022-08-12T02:44:56.934Z,7.80
2022-08-12T02:48:00.020Z,8.60
2022-08-12T02:50:16.270Z,7.90
2022-08-12T02:52:44.927Z,7.73
2022-08-12T02:55:34.373Z,7.17
2022-08-12T02:58:06.799Z,7.30
2022-08-12T03:00:39.408Z,6.40
2022-08-12T03:03:08.616Z,8.03
2022-08-12T03:05:44.147Z,6.63
2022-08-12T03:08:31.576Z,8.47
2022-08-12T03:11:01.817Z,7.03
2022-08-12T03:13:30.584Z,7.17
2022-08-12T03:16:00.250Z,7.70
2022-08-12T03:18:30.973Z,7.47
2022-08-12T03:20:59.653Z,6.83
2022-08-12T03:23:30.656Z,7.70
2022-08-12T03:26:01.547Z,6.77
2022-08-12T03:28:48.652Z,7.30
2022-08-12T03:31:19.534Z,6.37
2022-08-12T03:34:01.549Z,7.13
2022-08-12T03:36:33.416Z,6.50
2022-08-12T03:39:16.694Z,6.47
2022-08-12T03:41:49.369Z,6.57
2022-08-12T03:44:37.222Z,6.80
2022-08-12T03:47:26.963Z,7.07
2022-08-12T03:50:13.933Z,6.73
2022-08-12T03:52:59.957Z,6.30
2022-08-12T03:55:45.953Z,6.90
2022-08-12T03:58:31.924Z,6.30
2022-08-12T04:01:00.365Z,6.37
2022-08-12T04:03:47.605Z,6.17
2022-08-12T04:06:16.165Z,5.00
2022-08-12T04:09:02.435Z,6.03
2022-08-12T04:11:48.228Z,6.40
2022-08-12T04:14:19.812Z,6.20
2022-08-12T04:16:49.450Z,6.10
2022-08-12T04:19:19.934Z,6.10
2022-08-12T04:22:01.830Z,6.33
2022-08-12T04:24:31.974Z,6.70
2022-08-12T04:27:00.265Z,5.80
2022-08-12T04:30:30.213Z,5.90
2022-08-12T04:32:16.969Z,5.83
2022-08-12T04:34:46.639Z,6.37
2022-08-12T04:37:16.024Z,5.43
2022-08-12T04:39:44.719Z,5.57
2022-08-12T04:42:13.115Z,6.50
2022-08-12T04:44:42.334Z,5.50
2022-08-12T04:47:12.477Z,5.80
2022-08-12T04:49:41.767Z,5.90
2022-08-12T04:52:11.429Z,4.80
2022-08-12T04:54:39.801Z,5.47
2022-08-12T04:57:09.666Z,6.20
2022-08-12T04:59:47.779Z,5.50
2022-08-12T05:02:21.270Z,5.63
2022-08-12T05:04:51.501Z,5.80
2022-08-12T05:07:21.247Z,5.37
2022-08-12T05:09:59.829Z,4.93
2022-08-12T05:12:30.749Z,5.60
2022-08-12T05:14:59.189Z,5.50
2022-08-12T05:17:28.369Z,5.20
2022-08-12T05:19:57.387Z,5.20
2022-08-12T05:22:29.841Z,5.60
2022-08-12T05:24:58.090Z,5.10
2022-08-12T05:27:28.657Z,5.60
2022-08-12T05:30:08.356Z,5.70
2022-08-12T05:32:37.716Z,5.00
2022-08-12T05:35:08.136Z,5.67
2022-08-12T05:37:37.829Z,5.67
2022-08-12T05:40:10.851Z,5.50
2022-08-12T05:42:40.122Z,4.87
2022-08-12T05:45:09.104Z,5.73
2022-08-12T05:47:53.662Z,4.97
2022-08-12T05:50:22.879Z,4.90
2022-08-12T05:52:53.837Z,4.70
2022-08-12T05:55:23.636Z,4.77
2022-08-12T05:57:55.340Z,5.73
2022-08-12T06:00:25.633Z,5.23
2022-08-12T06:02:56.477Z,5.30
2022-08-12T06:05:25.088Z,5.00
2022-08-12T06:08:02.259Z,5.47
2022-08-12T06:10:33.077Z,5.67
2022-08-12T06:13:02.418Z,5.07
2022-08-12T06:15:31.482Z,5.03
2022-08-12T06:18:13.827Z,5.60
2022-08-12T06:20:45.110Z,5.00
2022-08-12T06:23:15.275Z,4.40
2022-08-12T06:25:43.709Z,4.83
2022-08-12T06:28:17.709Z,4.33
2022-08-12T06:31:08.263Z,5.60
2022-08-12T06:33:57.871Z,4.60
2022-08-12T06:36:29.562Z,4.33
2022-08-12T06:38:59.446Z,4.60
2022-08-12T06:42:02.511Z,4.37
2022-08-12T06:44:33.778Z,4.60
2022-08-12T06:47:02.025Z,5.07
2022-08-12T06:49:36.256Z,4.57
2022-08-12T06:52:05.150Z,4.50
2022-08-12T06:54:35.412Z,4.80
2022-08-12T06:57:57.026Z,5.00
2022-08-12T06:59:52.112Z,4.27
2022-08-12T07:02:22.558Z,4.40
2022-08-12T07:04:52.545Z,5.03
2022-08-12T07:07:21.298Z,4.20
2022-08-12T07:10:04.268Z,3.80
2022-08-12T07:12:36.675Z,3.90
2022-08-12T07:15:05.718Z,4.13
2022-08-12T07:17:37.262Z,4.00
2022-08-12T07:20:06.784Z,4.50
2022-08-12T07:22:35.133Z,4.80
2022-08-12T07:25:22.756Z,5.40
2022-08-12T07:27:55.069Z,4.00
2022-08-12T07:30:23.960Z,3.83
2022-08-12T07:32:52.370Z,4.73
2022-08-12T07:35:21.140Z,5.10
2022-08-12T07:37:50.449Z,4.00
2022-08-12T07:40:20.763Z,4.97
2022-08-12T07:42:49.605Z,3.90
2022-08-12T07:45:19.452Z,4.53
2022-08-12T07:47:48.322Z,4.23
2022-08-12T07:50:21.555Z,3.97
2022-08-12T07:52:51.751Z,4.57
2022-08-12T07:55:21.378Z,4.17
2022-08-12T07:57:50.587Z,4.00
2022-08-12T08:00:18.989Z,3.20
2022-08-12T08:02:47.233Z,4.23
2022-08-12T08:05:16.172Z,4.00
2022-08-12T08:07:44.509Z,3.83
2022-08-12T08:10:13.801Z,3.60
2022-08-12T08:12:54.593Z,2.97
2022-08-12T08:15:38.589Z,3.87
2022-08-12T08:18:14.950Z,3.43
2022-08-12T08:20:54.390Z,3.53
2022-08-12T08:23:29.420Z,3.50
2022-08-12T08:26:03.684Z,3.57
2022-08-12T08:28:36.482Z,4.20
2022-08-12T08:31:04.734Z,4.27
2022-08-12T08:34:09.292Z,3.93
2022-08-12T08:36:24.205Z,3.87
2022-08-12T08:38:55.032Z,3.10
2022-08-12T08:42:16.099Z,4.50
2022-08-12T08:44:36.358Z,3.70
2022-08-12T08:47:05.412Z,3.83
2022-08-12T08:49:37.426Z,4.00
2022-08-12T08:52:06.126Z,3.77
2022-08-12T08:54:34.500Z,3.50
2022-08-12T08:57:03.330Z,4.10
2022-08-12T08:59:31.936Z,4.00
2022-08-12T09:02:02.445Z,4.13
2022-08-12T09:13:23.397Z,3.80
2022-08-12T09:18:46.813Z,3.30
2022-08-12T09:21:15.186Z,3.23
2022-08-12T09:24:00.077Z,3.63
2022-08-12T09:26:30.274Z,4.10
2022-08-12T09:29:00.765Z,3.83
2022-08-12T09:32:05.852Z,3.70
2022-08-12T09:34:29.290Z,3.50
2022-08-12T09:37:19.191Z,3.60
2022-08-12T09:40:04.394Z,3.70
2022-08-12T09:43:16.700Z,3.20
2022-08-12T09:46:06.823Z,3.83
2022-08-12T09:48:40.131Z,3.23
2022-08-12T09:51:21.781Z,3.37
2022-08-12T09:54:08.562Z,3.20
2022-08-12T09:57:03.210Z,3.70
2022-08-12T10:00:12.694Z,3.00
2022-08-12T10:02:45.849Z,3.77
2022-08-12T10:05:05.421Z,3.50
2022-08-12T10:07:39.760Z,3.40
2022-08-12T10:10:22.722Z,3.27
2022-08-12T10:13:34.581Z,3.97
2022-08-12T10:16:02.122Z,3.50
2022-08-12T10:18:35.353Z,3.63
2022-08-12T10:21:07.335Z,3.43
2022-08-12T10:23:39.944Z,3.10
2022-08-12T10:26:37.341Z,3.33
2022-08-12T10:30:39.354Z,3.37
2022-08-12T10:32:21.366Z,3.23
2022-08-12T10:35:05.528Z,3.87
2022-08-12T10:38:38.140Z,3.13
2022-08-12T10:40:31.493Z,3.50
2022-08-12T10:43:19.009Z,3.20
2022-08-12T10:45:49.533Z,3.67
2022-08-12T10:48:34.318Z,3.23
2022-08-12T10:51:56.494Z,2.80
2022-08-12T10:54:00.475Z,3.87
2022-08-12T10:56:34.929Z,3.47
2022-08-12T10:59:05.327Z,3.27
2022-08-12T11:04:18.179Z,3.27
2022-08-12T11:04:39.369Z,2.73
2022-08-12T11:08:34.581Z,3.27
2022-08-12T11:10:02.830Z,2.90
2022-08-12T11:12:55.548Z,3.30
2022-08-12T11:15:33.342Z,2.67
2022-08-12T11:18:17.782Z,3.20
2022-08-12T11:20:47.798Z,3.60
2022-08-12T11:23:25.388Z,3.17
2022-08-12T11:26:06.304Z,3.50
2022-08-12T11:28:37.200Z,3.30
2022-08-12T11:31:06.759Z,3.40
2022-08-12T11:34:05.906Z,3.00
2022-08-12T11:36:26.604Z,3.60
2022-08-12T11:38:54.857Z,2.70
2022-08-12T11:41:31.092Z,3.10
2022-08-12T11:44:07.226Z,2.83
2022-08-12T11:46:52.535Z,3.30
2022-08-12T11:49:31.016Z,3.40
2022-08-12T11:52:00.346Z,3.33
2022-08-12T11:54:29.833Z,3.30
2022-08-12T11:56:59.592Z,3.20
2022-08-12T12:02:20.562Z,3.40
2022-08-12T12:04:52.325Z,3.90
2022-08-12T12:07:22.477Z,3.97
2022-08-12T12:09:52.678Z,3.70
2022-08-12T12:12:22.335Z,3.10
2022-08-12T12:14:54.829Z,3.50
2022-08-12T12:17:24.214Z,2.90
2022-08-12T12:19:53.057Z,3.77
2022-08-12T12:22:23.647Z,3.10
2022-08-12T12:24:55.560Z,3.23
2022-08-12T12:28:00.666Z,3.17
2022-08-12T12:30:29.154Z,2.93
2022-08-12T12:32:58.517Z,3.10
2022-08-12T12:36:18.608Z,3.77
2022-08-12T12:38:15.890Z,3.80
2022-08-12T12:40:45.149Z,3.00
2022-08-12T12:43:13.961Z,2.80
2022-08-12T12:45:46.385Z,3.40
2022-08-12T12:48:15.532Z,4.10
2022-08-12T12:50:51.134Z,2.90
2022-08-12T12:54:06.388Z,2.90
2022-08-12T12:56:15.917Z,2.50
2022-08-12T12:58:44.359Z,2.83
2022-08-12T13:01:25.298Z,2.60
2022-08-12T13:03:56.433Z,2.67
2022-08-12T13:06:30.441Z,2.40
2022-08-12T13:09:02.803Z,2.70
2022-08-12T13:11:32.712Z,2.70
2022-08-12T13:14:27.648Z,2.90
2022-08-12T13:17:02.396Z,2.30
2022-08-12T13:19:37.651Z,2.40
2022-08-12T13:22:18.796Z,2.53
2022-08-12T13:24:52.137Z,2.33
2022-08-12T13:27:28.254Z,2.43
2022-08-12T13:30:02.026Z,2.60
2022-08-12T13:32:33.527Z,2.87
2022-08-12T13:35:04.693Z,2.40
2022-08-12T13:37:55.149Z,2.40
2022-08-12T13:40:24.815Z,2.40
2022-08-12T13:42:57.399Z,2.67
2022-08-12T13:45:25.686Z,2.37
2022-08-12T13:47:56.886Z,2.67
2022-08-12T13:50:29.214Z,2.40
2022-08-12T13:52:57.511Z,3.00
2022-08-12T13:55:31.034Z,2.50
2022-08-12T13:58:01.685Z,2.50
2022-08-12T14:00:34.019Z,3.33
2022-08-12T14:03:08.414Z,2.20
2022-08-12T14:05:39.276Z,2.57
2022-08-12T14:08:08.551Z,2.73
2022-08-12T14:10:38.316Z,2.70
2022-08-12T14:14:02.642Z,2.77
2022-08-12T14:16:05.460Z,2.50
2022-08-12T14:18:39.621Z,2.50
2022-08-12T14:21:10.785Z,2.50
2022-08-12T14:24:08.142Z,2.63
2022-08-12T14:26:39.077Z,2.87
2022-08-12T14:29:07.381Z,2.27
2022-08-12T14:31:43.017Z,2.20
2022-08-12T14:34:13.230Z,2.73
2022-08-12T14:36:42.331Z,1.97
2022-08-12T14:39:10.628Z,3.10
2022-08-12T14:41:48.648Z,2.30
2022-08-12T14:44:59.918Z,2.10
2022-08-12T14:47:13.704Z,2.03
2022-08-12T14:50:34.694Z,2.47
2022-08-12T14:54:40.451Z,2.67
2022-08-12T14:58:22.408Z,2.50
2022-08-12T15:01:08.262Z,2.30
2022-08-12T15:03:52.800Z,1.97
2022-08-12T15:06:44.489Z,2.80
2022-08-12T15:09:16.218Z,2.60
2022-08-12T15:11:48.866Z,2.43
2022-08-12T15:14:25.340Z,2.30
2022-08-12T15:16:54.006Z,2.30
2022-08-12T15:20:12.083Z,2.83
2022-08-12T15:22:38.645Z,2.40
2022-08-12T15:25:00.618Z,2.57
2022-08-12T15:27:31.853Z,3.83
2022-08-12T15:30:19.893Z,2.20
2022-08-12T15:32:53.471Z,1.83
2022-08-12T15:35:21.953Z,2.80
2022-08-12T15:38:09.583Z,2.80
2022-08-12T15:40:48.467Z,2.70
2022-08-12T15:44:15.601Z,2.50
2022-08-12T15:46:06.243Z,2.73
2022-08-12T15:48:34.686Z,2.27
2022-08-12T15:51:04.688Z,2.77
2022-08-12T15:53:54.801Z,2.20
2022-08-12T15:56:29.474Z,2.63
2022-08-12T15:58:59.461Z,2.60
2022-08-12T16:01:35.570Z,2.23
2022-08-12T16:04:05.442Z,2.53
2022-08-12T16:09:56.669Z,2.80
2022-08-12T16:12:14.887Z,2.67
2022-08-12T16:14:43.322Z,2.30
2022-08-12T16:17:14.824Z,3.00
2022-08-12T16:20:05.063Z,2.47
2022-08-12T16:22:32.481Z,2.70
2022-08-12T16:25:03.900Z,2.90
2022-08-12T16:27:38.251Z,2.50
2022-08-12T16:30:07.610Z,2.90
2022-08-12T16:32:36.820Z,3.03
2022-08-12T16:35:08.198Z,2.80
2022-08-12T16:38:25.528Z,2.40
2022-08-12T16:40:35.166Z,2.60
2022-08-12T16:43:13.331Z,2.17
2022-08-12T16:46:07.862Z,2.90
2022-08-12T16:48:35.795Z,2.70
2022-08-12T16:51:08.180Z,2.80
2022-08-12T16:53:43.707Z,2.10
2022-08-12T16:56:16.904Z,2.50
2022-08-12T16:58:46.924Z,2.43
2022-08-12T17:01:16.331Z,3.00
2022-08-12T17:03:52.231Z,2.30
2022-08-12T17:06:27.510Z,2.93
2022-08-12T17:09:02.306Z,2.40
2022-08-12T17:11:32.895Z,2.60
2022-08-12T17:14:01.594Z,2.53
2022-08-12T17:16:30.573Z,2.70
2022-08-12T17:18:59.564Z,2.17
2022-08-12T17:21:40.821Z,4.03
2022-08-12T17:24:21.244Z,2.70
2022-08-12T17:26:54.073Z,2.53
2022-08-12T17:29:31.923Z,2.47
2022-08-12T17:32:14.276Z,2.93
2022-08-12T17:35:00.613Z,2.87
2022-08-12T17:37:29.032Z,2.37
2022-08-12T17:40:15.931Z,3.30
2022-08-12T17:42:48.216Z,3.00
2022-08-12T17:45:19.749Z,3.47
2022-08-12T17:48:00.018Z,3.50
2022-08-12T17:50:32.429Z,3.30
2022-08-12T17:53:03.152Z,3.40
2022-08-12T17:55:40.402Z,3.27
2022-08-12T17:58:14.694Z,3.40
2022-08-12T18:00:44.200Z,2.90
2022-08-12T18:04:04.843Z,2.77
2022-08-12T18:06:14.175Z,3.30
2022-08-12T18:08:53.468Z,3.20
2022-08-12T18:12:05.036Z,2.97
2022-08-12T18:14:31.327Z,3.47
2022-08-12T18:17:00.735Z,2.97
2022-08-12T18:19:34.426Z,2.67
2022-08-12T18:22:21.894Z,3.30
2022-08-12T18:25:02.273Z,3.40
2022-08-12T18:27:47.106Z,3.27
2022-08-12T18:30:29.550Z,3.20
2022-08-12T18:33:03.758Z,3.50
2022-08-12T18:35:46.835Z,3.20
2022-08-12T18:38:20.924Z,3.77
2022-08-12T18:41:10.268Z,3.50
2022-08-12T18:44:00.219Z,2.87
2022-08-12T18:46:30.031Z,3.33
2022-08-12T18:49:17.596Z,3.10
2022-08-12T18:51:55.384Z,3.60
2022-08-12T18:54:31.005Z,3.60
2022-08-12T18:57:01.590Z,2.67
2022-08-12T19:00:00.839Z,3.90
2022-08-12T19:02:22.568Z,3.37
2022-08-12T19:04:53.480Z,3.47
2022-08-12T19:07:23.165Z,3.67
2022-08-12T19:09:58.231Z,3.20
2022-08-12T19:12:56.901Z,3.13
2022-08-12T19:15:27.360Z,3.40
2022-08-12T19:18:03.179Z,3.80
2022-08-12T19:20:32.988Z,2.70
2022-08-12T19:23:08.283Z,3.10
2022-08-12T19:26:02.301Z,3.03
2022-08-12T19:28:34.430Z,3.83
2022-08-12T19:31:55.489Z,5.13
2022-08-12T19:34:47.040Z,3.10
2022-08-12T19:37:17.190Z,3.60
2022-08-12T19:40:07.906Z,3.57
2022-08-12T19:42:36.185Z,3.27
2022-08-12T19:45:12.076Z,3.03
2022-08-12T19:47:44.565Z,2.83
2022-08-12T19:50:20.341Z,3.20
2022-08-12T19:52:51.076Z,3.43
2022-08-12T19:55:21.911Z,3.37
2022-08-12T19:58:03.036Z,3.20
2022-08-12T20:00:34.833Z,2.87
2022-08-12T20:03:04.455Z,3.00
2022-08-12T20:06:07.807Z,2.70
2022-08-12T20:08:34.300Z,2.70
2022-08-12T20:12:11.211Z,2.67
2022-08-12T20:14:00.294Z,2.87
2022-08-12T20:16:53.271Z,2.53
2022-08-12T20:19:17.599Z,2.73
2022-08-12T20:21:47.366Z,2.77
2022-08-12T20:24:16.116Z,3.33
2022-08-12T20:26:48.283Z,2.93
2022-08-12T20:29:17.272Z,2.93
2022-08-12T20:31:46.183Z,3.60
2022-08-12T20:34:20.176Z,3.00
2022-08-12T20:36:57.323Z,2.93
2022-08-12T20:39:52.185Z,2.67
2022-08-12T20:42:23.100Z,3.13
2022-08-12T20:44:52.859Z,3.27
2022-08-12T20:47:21.141Z,3.00
2022-08-12T20:49:56.022Z,2.90
2022-08-12T20:52:34.268Z,3.30
2022-08-12T20:55:04.049Z,2.97
2022-08-12T20:57:38.226Z,3.40
2022-08-12T21:00:28.264Z,3.70
2022-08-12T21:03:18.153Z,2.70
2022-08-12T21:06:12.437Z,2.70
2022-08-12T21:08:44.164Z,2.73
2022-08-12T21:11:12.428Z,2.47
2022-08-12T21:13:41.780Z,3.30
2022-08-12T21:16:10.548Z,2.93
2022-08-12T21:18:40.980Z,3.00
2022-08-12T21:21:23.667Z,2.67
2022-08-12T21:23:56.501Z,2.83
2022-08-12T21:26:27.293Z,3.33
2022-08-12T21:29:01.748Z,2.83
2022-08-12T21:32:39.635Z,3.10
2022-08-12T21:34:26.369Z,3.33
2022-08-12T21:37:13.052Z,3.87
2022-08-12T21:39:53.435Z,4.67
2022-08-12T21:42:27.872Z,5.90
2022-08-12T21:45:47.485Z,5.00
2022-08-12T21:47:45.876Z,4.60
2022-08-12T21:50:18.185Z,4.53
2022-08-12T21:52:48.729Z,3.70
2022-08-12T21:55:20.426Z,9.07
2022-08-12T21:57:53.426Z,10.07
2022-08-12T22:00:23.853Z,48.00
2022-08-12T22:03:54.969Z,23.47
2022-08-12T22:06:26.245Z,21.87
2022-08-12T22:09:02.991Z,13.77
2022-08-12T22:11:41.499Z,4.63
2022-08-12T22:14:21.751Z,5.03
2022-08-12T22:16:54.158Z,3.70
2022-08-12T22:19:23.390Z,4.03
2022-08-12T22:21:54.008Z,3.50
2022-08-12T22:24:26.446Z,3.27
2022-08-12T22:27:08.101Z,3.50
2022-08-12T22:30:06.857Z,3.77
2022-08-12T22:32:36.461Z,3.53
2022-08-12T22:35:29.166Z,3.60
2022-08-12T22:37:58.768Z,3.73
2022-08-12T22:40:28.011Z,4.20
2022-08-12T22:43:15.935Z,4.40
2022-08-12T22:46:02.069Z,3.33
2022-08-12T22:48:30.966Z,4.37
2022-08-12T22:50:59.647Z,4.27
2022-08-12T22:53:36.318Z,2.90
2022-08-12T22:56:07.136Z,2.93
2022-08-12T22:58:40.816Z,3.50
2022-08-12T23:01:21.070Z,3.33
2022-08-12T23:03:51.130Z,3.57
2022-08-12T23:06:23.816Z,3.03
2022-08-12T23:08:52.266Z,3.30
2022-08-12T23:11:23.508Z,3.87
2022-08-12T23:13:56.623Z,3.40
2022-08-12T23:16:30.961Z,3.90
2022-08-12T23:19:01.636Z,2.43
2022-08-12T23:22:04.393Z,3.30
2022-08-12T23:24:27.127Z,3.23
2022-08-12T23:27:13.193Z,2.37
2022-08-12T23:29:59.550Z,3.53
2022-08-12T23:32:36.312Z,2.87
2022-08-12T23:35:06.524Z,2.87
2022-08-12T23:37:47.284Z,3.17
2022-08-12T23:40:24.623Z,2.70
2022-08-12T23:42:54.262Z,2.80
2022-08-12T23:45:31.674Z,3.33
2022-08-12T23:48:00.682Z,2.73
2022-08-12T23:50:33.818Z,2.57
2022-08-12T23:53:05.735Z,2.50
2022-08-12T23:55:38.267Z,2.87
2022-08-12T23:58:20.784Z,2.80
